Time;durP1;ratioP1;P1;durP2;ratioP2;P2;SDS_P1;SDS_P2;PMS_P1;PMS_P2;Temp;Humidity;BMP_temperature;BMP_pressure;BME280_temperature;BME280_humidity;BME280_pressure;Samples;Min_cycle;Max_cycle;Signal;HPM_P1;HPM_P2
2023/05/28 00:00:26;;;;;;;27.33;8.43;;;13.80;99.90;;;;;;5061644;28;20041;-71
2023/05/28 00:02:52;;;;;;;30.67;8.65;;;13.80;99.90;;;;;;5061694;28;20027;-72
2023/05/28 00:05:17;;;;;;;24.95;7.72;;;13.70;99.90;;;;;;5061498;28;20048;-72
2023/05/28 00:07:43;;;;;;;25.58;7.38;;;13.70;99.90;;;;;;5061189;28;20090;-73
2023/05/28 00:10:09;;;;;;;23.13;7.22;;;13.70;99.90;;;;;;5061974;28;20021;-72
2023/05/28 00:12:35;;;;;;;21.73;6.45;;;13.60;99.90;;;;;;5061328;28;20040;-72
2023/05/28 00:15:00;;;;;;;24.25;8.25;;;13.60;99.90;;;;;;5061546;28;20017;-72
2023/05/28 00:17:27;;;;;;;23.52;7.30;;;13.60;99.90;;;;;;5059451;28;20021;-71
2023/05/28 00:19:53;;;;;;;24.25;7.72;;;13.60;99.90;;;;;;5061240;28;20119;-71
2023/05/28 00:22:19;;;;;;;26.75;7.47;;;13.60;99.90;;;;;;5061461;28;20029;-73
2023/05/28 00:24:45;;;;;;;21.75;7.63;;;13.60;99.90;;;;;;5061596;28;20104;-72
2023/05/28 00:27:10;;;;;;;27.05;7.90;;;13.50;99.90;;;;;;5059897;28;20018;-72
2023/05/28 00:29:36;;;;;;;18.85;7.25;;;13.50;99.90;;;;;;5061839;28;20036;-72
2023/05/28 00:32:02;;;;;;;26.35;7.78;;;13.50;99.90;;;;;;5061624;28;20021;-72
2023/05/28 00:34:27;;;;;;;26.25;7.25;;;13.40;99.90;;;;;;5064303;28;20025;-72
2023/05/28 00:36:54;;;;;;;26.75;7.82;;;13.40;99.90;;;;;;5063888;28;21089;-73
2023/05/28 00:39:19;;;;;;;27.50;7.32;;;13.40;99.90;;;;;;5063999;28;20025;-73
2023/05/28 00:41:46;;;;;;;21.65;7.25;;;13.40;99.90;;;;;;5065337;28;20021;-73
2023/05/28 00:44:12;;;;;;;22.60;7.97;;;13.40;99.90;;;;;;5065557;28;20017;-73
2023/05/28 00:46:41;;;;;;;25.38;8.18;;;13.30;99.90;;;;;;5065253;28;20037;-72
2023/05/28 00:49:09;;;;;;;24.10;7.80;;;13.40;99.90;;;;;;5064453;28;20044;-73
2023/05/28 00:51:35;;;;;;;26.85;7.75;;;13.30;99.90;;;;;;5063930;28;20067;-73
2023/05/28 00:54:02;;;;;;;22.75;8.52;;;13.30;99.90;;;;;;5064040;28;20029;-72
2023/05/28 00:56:28;;;;;;;25.75;7.78;;;13.20;99.90;;;;;;5064750;28;20025;-73
2023/05/28 00:58:55;;;;;;;27.85;8.02;;;13.20;99.90;;;;;;5064942;28;20043;-72
2023/05/28 01:01:24;;;;;;;22.95;8.07;;;13.10;99.90;;;;;;5065038;28;20092;-72
2023/05/28 01:03:51;;;;;;;28.75;8.70;;;13.10;99.90;;;;;;5064482;28;20059;-73
2023/05/28 01:06:20;;;;;;;26.73;8.90;;;13.10;99.90;;;;;;5063653;28;20028;-73
2023/05/28 01:08:46;;;;;;;24.23;8.98;;;13.00;99.90;;;;;;5062624;28;20029;-71
2023/05/28 01:11:16;;;;;;;24.60;8.50;;;13.10;99.90;;;;;;5064903;28;20072;-73
2023/05/28 01:13:42;;;;;;;23.67;8.73;;;13.10;99.90;;;;;;5064446;28;20025;-73
2023/05/28 01:16:08;;;;;;;25.00;7.95;;;13.00;99.90;;;;;;5064364;28;20142;-71
2023/05/28 01:18:37;;;;;;;30.98;8.75;;;13.00;99.90;;;;;;5065175;28;20021;-71
2023/05/28 01:21:03;;;;;;;35.90;8.38;;;13.00;99.90;;;;;;5064940;28;20040;-72
2023/05/28 01:23:32;;;;;;;28.67;8.32;;;12.90;99.90;;;;;;5061993;28;20021;-72
2023/05/28 01:25:59;;;;;;;27.95;8.10;;;12.90;99.90;;;;;;5064128;28;20478;-72
2023/05/28 01:28:25;;;;;;;22.35;8.10;;;12.80;99.90;;;;;;5062903;28;20070;-72
2023/05/28 01:30:52;;;;;;;24.23;8.00;;;12.80;99.90;;;;;;5064010;28;20088;-72
2023/05/28 01:33:20;;;;;;;30.02;8.55;;;12.70;99.90;;;;;;5063961;28;20021;-72
2023/05/28 01:35:46;;;;;;;23.27;8.32;;;12.70;99.90;;;;;;5064381;28;20060;-73
2023/05/28 01:38:14;;;;;;;25.67;8.80;;;12.70;99.90;;;;;;5063034;28;20021;-73
2023/05/28 01:40:44;;;;;;;23.23;8.88;;;12.70;99.90;;;;;;5064087;28;20029;-72
2023/05/28 01:43:11;;;;;;;27.27;8.85;;;12.70;99.90;;;;;;5064141;28;20115;-72
2023/05/28 01:45:37;;;;;;;26.10;8.93;;;12.60;99.90;;;;;;5064373;28;20025;-72
2023/05/28 01:48:03;;;;;;;24.50;9.05;;;12.60;99.90;;;;;;5064012;28;20021;-72
2023/05/28 01:50:30;;;;;;;26.08;8.95;;;12.50;99.90;;;;;;5063798;28;20052;-73
2023/05/28 01:52:55;;;;;;;28.90;9.60;;;12.50;99.90;;;;;;5064245;28;20111;-72
2023/05/28 01:55:24;;;;;;;26.17;9.40;;;12.50;99.90;;;;;;5064134;28;20080;-73
2023/05/28 01:57:49;;;;;;;20.20;8.18;;;12.50;99.90;;;;;;5063176;28;20021;-72
2023/05/28 02:00:16;;;;;;;26.95;9.68;;;12.50;99.90;;;;;;5062376;28;20068;-72
2023/05/28 02:02:42;;;;;;;23.25;8.73;;;12.40;99.90;;;;;;5061829;28;20037;-74
2023/05/28 02:05:08;;;;;;;29.15;9.88;;;12.40;99.90;;;;;;5063838;28;20021;-74
2023/05/28 02:07:34;;;;;;;29.50;9.75;;;12.40;99.90;;;;;;5064023;28;20516;-73
2023/05/28 02:10:00;;;;;;;31.02;9.52;;;12.40;99.90;;;;;;5063421;28;20029;-72
2023/05/28 02:12:26;;;;;;;21.58;8.48;;;12.30;99.90;;;;;;5063998;28;20067;-72
2023/05/28 02:14:51;;;;;;;23.33;8.95;;;12.30;99.90;;;;;;5062444;28;20448;-74
2023/05/28 02:17:17;;;;;;;21.40;8.98;;;12.30;99.90;;;;;;5063321;28;20095;-73
2023/05/28 02:19:43;;;;;;;27.52;9.07;;;12.30;99.90;;;;;;5062893;28;20037;-73
2023/05/28 02:22:11;;;;;;;25.35;9.20;;;12.30;99.90;;;;;;5063702;28;20025;-73
2023/05/28 02:24:39;;;;;;;29.33;8.88;;;12.30;99.90;;;;;;5061844;28;20021;-72
2023/05/28 02:27:07;;;;;;;29.45;8.85;;;12.20;99.90;;;;;;5063016;28;20080;-74
2023/05/28 02:29:33;;;;;;;26.08;9.20;;;12.20;99.90;;;;;;5062648;28;20021;-73
2023/05/28 02:32:00;;;;;;;30.30;9.80;;;12.20;99.90;;;;;;5062854;28;20389;-72
2023/05/28 02:34:25;;;;;;;30.75;9.57;;;12.20;99.90;;;;;;5061709;28;20033;-72
2023/05/28 02:36:52;;;;;;;29.02;9.45;;;12.10;99.90;;;;;;5061608;28;20535;-73
2023/05/28 02:39:18;;;;;;;26.50;9.20;;;12.10;99.90;;;;;;5061198;28;20485;-72
2023/05/28 02:41:44;;;;;;;27.73;9.75;;;12.10;99.90;;;;;;5062925;28;20021;-73
2023/05/28 02:44:10;;;;;;;24.80;9.55;;;12.10;99.90;;;;;;5062486;28;20025;-72
2023/05/28 02:46:35;;;;;;;26.98;9.27;;;12.00;99.90;;;;;;5062936;28;20031;-73
2023/05/28 02:49:01;;;;;;;26.52;10.02;;;12.00;99.90;;;;;;5063043;28;20017;-72
2023/05/28 02:51:27;;;;;;;24.10;9.30;;;12.00;99.90;;;;;;5061584;28;20076;-72
2023/05/28 02:53:52;;;;;;;25.98;9.43;;;11.90;99.90;;;;;;5061477;28;20375;-73
2023/05/28 02:56:18;;;;;;;24.52;9.20;;;12.00;99.90;;;;;;5059795;28;20033;-72
2023/05/28 02:58:44;;;;;;;22.73;9.45;;;11.90;99.90;;;;;;5062850;28;20035;-72
2023/05/28 03:01:10;;;;;;;26.80;10.10;;;12.00;99.90;;;;;;5061852;28;20040;-73
2023/05/28 03:03:35;;;;;;;26.13;9.90;;;11.90;99.90;;;;;;5063168;28;20027;-73
2023/05/28 03:06:01;;;;;;;27.10;9.98;;;11.90;99.90;;;;;;5061269;28;20072;-72
2023/05/28 03:08:27;;;;;;;27.77;9.95;;;11.90;99.90;;;;;;5062612;28;20029;-72
2023/05/28 03:10:52;;;;;;;27.05;10.20;;;11.80;99.90;;;;;;5061151;28;20025;-71
2023/05/28 03:13:18;;;;;;;26.25;10.18;;;11.90;99.90;;;;;;5062492;28;20033;-72
2023/05/28 03:15:43;;;;;;;26.67;9.85;;;11.80;99.90;;;;;;5060962;28;20040;-72
2023/05/28 03:18:09;;;;;;;20.83;9.35;;;11.80;99.90;;;;;;5061418;28;20056;-73
2023/05/28 03:20:35;;;;;;;26.50;10.15;;;11.80;99.90;;;;;;5061978;28;20028;-73
2023/05/28 03:23:00;;;;;;;25.33;10.18;;;11.80;99.90;;;;;;5062271;28;20029;-73
2023/05/28 03:25:26;;;;;;;27.23;9.70;;;11.80;99.90;;;;;;5060899;28;20069;-71
2023/05/28 03:27:53;;;;;;;30.63;10.45;;;11.80;99.90;;;;;;5061145;28;20060;-72
2023/05/28 03:30:18;;;;;;;31.50;10.80;;;11.80;99.90;;;;;;5062487;28;20108;-71
2023/05/28 03:32:44;;;;;;;31.63;9.75;;;11.80;99.90;;;;;;5062347;28;20072;-72
2023/05/28 03:35:10;;;;;;;29.85;10.93;;;11.80;99.90;;;;;;5060626;28;20043;-72
2023/05/28 03:37:36;;;;;;;31.73;9.95;;;11.80;99.90;;;;;;5062537;28;20081;-71
2023/05/28 03:40:04;;;;;;;26.10;10.35;;;11.80;99.90;;;;;;5062130;28;20482;-71
2023/05/28 03:42:30;;;;;;;30.88;10.13;;;11.80;99.90;;;;;;5061465;28;20043;-72
2023/05/28 03:44:55;;;;;;;28.33;10.45;;;11.80;99.90;;;;;;5060620;28;20025;-72
2023/05/28 03:47:21;;;;;;;29.73;9.77;;;11.90;99.90;;;;;;5061661;28;20067;-73
2023/05/28 03:49:47;;;;;;;34.50;10.75;;;11.80;99.90;;;;;;5061116;28;20052;-72
2023/05/28 03:52:12;;;;;;;32.20;10.63;;;11.90;99.90;;;;;;5061771;28;20820;-71
2023/05/28 03:54:38;;;;;;;29.80;10.85;;;11.90;99.90;;;;;;5062139;28;20029;-72
2023/05/28 03:57:05;;;;;;;32.55;10.70;;;11.90;99.90;;;;;;5061569;28;20397;-71
2023/05/28 03:59:31;;;;;;;29.40;10.07;;;12.00;99.90;;;;;;5061491;28;20056;-71
2023/05/28 04:01:56;;;;;;;25.98;11.07;;;12.00;99.90;;;;;;5061744;28;20021;-72
2023/05/28 04:04:22;;;;;;;24.95;9.45;;;12.00;99.90;;;;;;5061436;28;20441;-73
2023/05/28 04:06:47;;;;;;;26.73;10.05;;;12.10;99.90;;;;;;5061632;28;20020;-72
2023/05/28 04:09:13;;;;;;;27.25;10.25;;;12.10;99.90;;;;;;5061194;28;20620;-71
2023/05/28 04:11:39;;;;;;;26.13;9.70;;;12.10;99.90;;;;;;5060054;28;20021;-71
2023/05/28 04:14:04;;;;;;;27.92;10.48;;;12.20;99.90;;;;;;5062030;28;20029;-72
2023/05/28 04:16:31;;;;;;;31.02;9.98;;;12.20;99.90;;;;;;5061728;28;20021;-71
2023/05/28 04:18:56;;;;;;;32.72;10.27;;;12.20;99.90;;;;;;5061047;28;20028;-71
2023/05/28 04:21:24;;;;;;;23.40;10.50;;;12.20;99.90;;;;;;5060319;28;20029;-71
2023/05/28 04:23:49;;;;;;;34.10;10.60;;;12.20;99.90;;;;;;5059867;28;20063;-71
2023/05/28 04:26:16;;;;;;;33.75;12.07;;;12.20;99.90;;;;;;5060610;28;20025;-72
2023/05/28 04:28:42;;;;;;;36.33;10.25;;;12.20;99.90;;;;;;5061647;28;20028;-71
2023/05/28 04:31:09;;;;;;;35.00;10.32;;;12.20;99.90;;;;;;5059167;28;20040;-71
2023/05/28 04:33:36;;;;;;;27.13;10.70;;;12.20;99.90;;;;;;5061738;28;20027;-72
2023/05/28 04:36:03;;;;;;;29.65;10.63;;;12.20;99.90;;;;;;5059121;28;20055;-72
2023/05/28 04:38:29;;;;;;;30.00;10.95;;;12.10;99.90;;;;;;5057792;28;20033;-70
2023/05/28 04:40:55;;;;;;;33.65;11.23;;;12.20;99.90;;;;;;5061039;28;20132;-71
2023/05/28 04:43:24;;;;;;;33.45;10.50;;;12.20;99.90;;;;;;5059254;28;20033;-73
2023/05/28 04:45:49;;;;;;;29.52;11.20;;;12.30;99.90;;;;;;5059854;28;20123;-72
2023/05/28 04:48:15;;;;;;;25.80;10.10;;;12.30;99.90;;;;;;5061409;28;20032;-72
2023/05/28 04:50:41;;;;;;;26.55;9.80;;;12.40;99.90;;;;;;5059532;28;20072;-73
2023/05/28 04:53:07;;;;;;;31.55;11.20;;;12.40;99.90;;;;;;5060493;28;20040;-71
2023/05/28 04:55:33;;;;;;;25.08;10.45;;;12.40;99.90;;;;;;5059059;28;20138;-71
2023/05/28 04:57:58;;;;;;;26.33;10.52;;;12.50;99.90;;;;;;5057177;28;20033;-70
2023/05/28 05:00:26;;;;;;;26.23;10.07;;;12.50;99.90;;;;;;5057705;28;20521;-72
2023/05/28 05:02:52;;;;;;;37.53;10.68;;;12.60;99.90;;;;;;5058536;28;20056;-71
2023/05/28 05:05:18;;;;;;;32.33;10.95;;;12.60;99.90;;;;;;5058944;28;20032;-70
2023/05/28 05:07:45;;;;;;;35.25;11.40;;;12.70;99.90;;;;;;5058953;28;20455;-71
2023/05/28 05:10:11;;;;;;;40.72;10.70;;;12.70;99.90;;;;;;5059477;28;20033;-72
2023/05/28 05:12:37;;;;;;;32.47;10.73;;;12.80;99.90;;;;;;5060764;28;20040;-72
2023/05/28 05:15:05;;;;;;;30.92;10.63;;;12.80;99.90;;;;;;5060081;28;20037;-70
2023/05/28 05:17:31;;;;;;;27.42;11.07;;;12.90;99.90;;;;;;5059244;28;20081;-72
2023/05/28 05:19:57;;;;;;;26.73;10.70;;;12.90;99.90;;;;;;5061613;28;20163;-72
2023/05/28 05:22:24;;;;;;;32.28;11.70;;;12.90;99.90;;;;;;5064105;28;20037;-72
2023/05/28 05:24:49;;;;;;;33.50;11.43;;;13.00;99.90;;;;;;5062960;28;20476;-70
2023/05/28 05:27:15;;;;;;;33.40;10.65;;;13.00;99.90;;;;;;5062111;28;20037;-69
2023/05/28 05:29:41;;;;;;;26.25;10.85;;;13.00;99.90;;;;;;5064707;28;20013;-72
2023/05/28 05:32:08;;;;;;;28.38;10.57;;;13.00;99.90;;;;;;5062981;28;20025;-73
2023/05/28 05:34:33;;;;;;;29.85;10.93;;;13.10;99.90;;;;;;5062169;28;20114;-72
2023/05/28 05:36:59;;;;;;;29.77;11.60;;;13.10;99.90;;;;;;5063084;28;20029;-71
2023/05/28 05:39:25;;;;;;;28.30;10.30;;;13.10;99.90;;;;;;5062248;28;20533;-71
2023/05/28 05:41:51;;;;;;;34.15;11.52;;;13.10;99.90;;;;;;5064542;28;20051;-72
2023/05/28 05:44:16;;;;;;;31.15;11.25;;;13.20;99.90;;;;;;5064525;28;20027;-71
2023/05/28 05:46:42;;;;;;;32.00;10.90;;;13.20;99.90;;;;;;5064405;28;20033;-70
2023/05/28 05:49:09;;;;;;;30.73;12.18;;;13.20;99.90;;;;;;5064197;28;20067;-71
2023/05/28 05:51:36;;;;;;;27.27;11.10;;;13.30;99.90;;;;;;5062393;28;20059;-71
2023/05/28 05:54:02;;;;;;;29.00;11.23;;;13.30;99.90;;;;;;5063989;28;20021;-71
2023/05/28 05:56:28;;;;;;;28.17;11.20;;;13.40;99.90;;;;;;5060884;28;20033;-71
2023/05/28 05:58:54;;;;;;;28.45;11.55;;;13.40;99.90;;;;;;5062657;28;20531;-71
2023/05/28 06:01:21;;;;;;;31.25;11.68;;;13.50;99.90;;;;;;5063833;28;20041;-69
2023/05/28 06:03:46;;;;;;;27.65;11.38;;;13.50;99.90;;;;;;5060137;28;20021;-70
2023/05/28 06:06:12;;;;;;;31.42;11.85;;;13.60;99.90;;;;;;5063602;28;20028;-72
2023/05/28 06:08:39;;;;;;;33.35;11.20;;;13.60;99.90;;;;;;5062706;28;20470;-72
2023/05/28 06:11:05;;;;;;;27.25;11.23;;;13.60;99.90;;;;;;5063892;28;20053;-70
2023/05/28 06:13:31;;;;;;;26.55;11.23;;;13.60;99.90;;;;;;5063432;28;20036;-69
2023/05/28 06:15:57;;;;;;;28.08;11.00;;;13.60;99.90;;;;;;5064095;28;20088;-70
2023/05/28 06:18:23;;;;;;;28.48;10.68;;;13.70;99.90;;;;;;5063547;28;20050;-70
2023/05/28 06:20:49;;;;;;;31.70;11.88;;;13.80;99.90;;;;;;5061570;28;20033;-70
2023/05/28 06:23:15;;;;;;;28.80;11.30;;;13.80;99.90;;;;;;5063553;28;20033;-70
2023/05/28 06:25:41;;;;;;;34.67;11.02;;;13.80;99.90;;;;;;5062727;28;20013;-70
2023/05/28 06:28:07;;;;;;;27.85;10.93;;;13.80;99.90;;;;;;5061451;28;20013;-69
2023/05/28 06:30:33;;;;;;;27.48;11.32;;;13.80;99.90;;;;;;5062978;28;20041;-70
2023/05/28 06:32:58;;;;;;;27.75;10.93;;;13.90;99.90;;;;;;5062663;28;20046;-70
2023/05/28 06:35:24;;;;;;;32.65;11.77;;;13.90;99.90;;;;;;5062516;28;20028;-69
2023/05/28 06:37:49;;;;;;;31.65;11.98;;;14.00;99.90;;;;;;5062361;28;20557;-69
2023/05/28 06:40:15;;;;;;;26.85;10.60;;;14.00;99.90;;;;;;5061641;28;20053;-70
2023/05/28 06:42:41;;;;;;;30.10;10.60;;;14.10;99.90;;;;;;5062925;28;20047;-70
2023/05/28 06:45:07;;;;;;;31.02;10.98;;;14.10;99.90;;;;;;5061295;28;20089;-69
2023/05/28 06:47:33;;;;;;;29.98;10.30;;;14.20;99.90;;;;;;5059768;28;20743;-69
2023/05/28 06:49:58;;;;;;;26.05;10.85;;;14.20;99.90;;;;;;5062461;28;20020;-70
2023/05/28 06:52:24;;;;;;;33.20;10.57;;;14.20;99.90;;;;;;5056939;28;20144;-69
2023/05/28 06:54:50;;;;;;;34.30;11.25;;;14.30;99.90;;;;;;5059871;28;20017;-69
2023/05/28 06:57:15;;;;;;;29.67;11.15;;;14.30;99.90;;;;;;5062426;28;20029;-70
2023/05/28 06:59:41;;;;;;;29.02;11.10;;;14.30;99.90;;;;;;5062975;28;20033;-71
2023/05/28 07:02:07;;;;;;;34.22;10.88;;;14.30;99.90;;;;;;5058394;28;20036;-70
2023/05/28 07:04:32;;;;;;;26.95;10.40;;;14.40;99.90;;;;;;5055045;28;20017;-70
2023/05/28 07:06:58;;;;;;;25.83;9.82;;;14.50;99.90;;;;;;5061153;28;20021;-69
2023/05/28 07:09:23;;;;;;;28.17;10.13;;;14.60;99.90;;;;;;5061709;28;20048;-70
2023/05/28 07:11:49;;;;;;;31.33;10.38;;;14.70;99.90;;;;;;5061698;28;20382;-70
2023/05/28 07:14:15;;;;;;;28.95;10.57;;;14.80;99.90;;;;;;5062375;28;20017;-70
2023/05/28 07:16:41;;;;;;;21.65;10.20;;;14.80;99.90;;;;;;5061834;28;20033;-69
2023/05/28 07:19:06;;;;;;;24.55;9.75;;;15.00;99.90;;;;;;5061573;28;20044;-70
2023/05/28 07:21:32;;;;;;;26.95;10.85;;;15.00;99.90;;;;;;5060423;28;20037;-69
2023/05/28 07:23:58;;;;;;;27.35;10.18;;;15.10;99.90;;;;;;5057700;28;20028;-70
2023/05/28 07:26:25;;;;;;;25.70;10.30;;;15.10;99.90;;;;;;5054900;28;20041;-69
2023/05/28 07:28:50;;;;;;;26.23;10.05;;;15.20;99.90;;;;;;5058776;28;20029;-69
2023/05/28 07:31:16;;;;;;;23.98;9.85;;;15.30;99.90;;;;;;5060048;28;20107;-70
2023/05/28 07:33:41;;;;;;;31.23;10.07;;;15.30;99.90;;;;;;5061161;28;20037;-71
2023/05/28 07:36:08;;;;;;;25.20;10.13;;;15.40;99.90;;;;;;5062146;28;20033;-71
2023/05/28 07:38:34;;;;;;;33.70;10.93;;;15.50;99.90;;;;;;5062512;28;20047;-69
2023/05/28 07:40:59;;;;;;;22.10;9.98;;;15.60;99.90;;;;;;5061792;28;20044;-69
2023/05/28 07:43:25;;;;;;;31.15;10.13;;;15.60;99.90;;;;;;5061673;28;20025;-68
2023/05/28 07:45:50;;;;;;;28.02;10.57;;;15.60;99.90;;;;;;5062332;28;20033;-68
2023/05/28 07:48:16;;;;;;;27.90;9.85;;;15.70;99.90;;;;;;5052746;28;20017;-68
2023/05/28 07:50:42;;;;;;;26.13;9.10;;;15.70;99.90;;;;;;5059665;28;20049;-70
2023/05/28 07:53:07;;;;;;;25.27;9.95;;;15.70;99.90;;;;;;5059049;28;20025;-69
2023/05/28 07:55:33;;;;;;;29.45;9.57;;;15.70;99.90;;;;;;5060457;28;20032;-69
2023/05/28 07:57:58;;;;;;;31.52;10.00;;;15.80;99.90;;;;;;5059313;28;20036;-68
2023/05/28 08:00:25;;;;;;;29.35;9.93;;;15.90;99.90;;;;;;5059891;28;20470;-70
2023/05/28 08:02:51;;;;;;;30.52;10.05;;;16.00;99.90;;;;;;5058523;28;20045;-70
2023/05/28 08:05:18;;;;;;;30.13;9.25;;;16.10;99.90;;;;;;5058762;28;20021;-71
2023/05/28 08:07:44;;;;;;;27.52;8.95;;;16.20;99.90;;;;;;5061473;28;20039;-68
2023/05/28 08:10:10;;;;;;;22.63;8.50;;;16.30;99.90;;;;;;5060173;28;20106;-70
2023/05/28 08:12:35;;;;;;;25.83;9.25;;;16.40;99.90;;;;;;5057963;28;20466;-70
2023/05/28 08:15:01;;;;;;;21.70;8.13;;;16.40;99.90;;;;;;5056933;28;20036;-69
2023/05/28 08:17:30;;;;;;;27.13;9.07;;;16.60;99.90;;;;;;5060719;28;20709;-70
2023/05/28 08:19:56;;;;;;;26.50;9.00;;;16.80;99.90;;;;;;5061437;28;20111;-68
2023/05/28 08:22:21;;;;;;;22.67;8.70;;;16.80;99.90;;;;;;5060024;28;20021;-70
2023/05/28 08:24:47;;;;;;;35.20;9.07;;;16.90;99.90;;;;;;5060107;28;20029;-69
2023/05/28 08:27:12;;;;;;;24.58;7.95;;;17.00;99.90;;;;;;5060735;28;20036;-70
2023/05/28 08:29:38;;;;;;;22.27;8.05;;;17.20;99.90;;;;;;5061791;28;20493;-70
2023/05/28 08:32:04;;;;;;;26.50;9.52;;;17.30;99.90;;;;;;5047946;28;20033;-69
2023/05/28 08:34:30;;;;;;;24.98;8.63;;;17.40;99.90;;;;;;5055817;28;20547;-70
2023/05/28 08:36:56;;;;;;;22.17;8.30;;;17.50;99.90;;;;;;5054389;28;20043;-69
2023/05/28 08:39:24;;;;;;;24.27;8.55;;;17.60;99.90;;;;;;5049400;28;20026;-70
2023/05/28 08:41:49;;;;;;;28.35;8.20;;;17.70;99.90;;;;;;5051652;28;20041;-71
2023/05/28 08:44:15;;;;;;;22.70;8.40;;;17.80;99.90;;;;;;5058765;28;20025;-71
2023/05/28 08:46:41;;;;;;;26.13;8.65;;;18.00;99.90;;;;;;5059440;28;20030;-70
2023/05/28 08:49:09;;;;;;;26.15;8.77;;;18.00;99.90;;;;;;5055841;28;20032;-70
2023/05/28 08:51:37;;;;;;;21.73;8.25;;;18.20;99.90;;;;;;5058444;28;20075;-71
2023/05/28 08:54:03;;;;;;;22.98;8.80;;;18.20;99.90;;;;;;5060883;28;20611;-70
2023/05/28 08:56:29;;;;;;;26.50;8.20;;;18.20;99.90;;;;;;5063410;28;20032;-70
2023/05/28 08:58:55;;;;;;;23.13;8.02;;;18.30;99.90;;;;;;5064701;28;20052;-69
2023/05/28 09:01:20;;;;;;;26.20;8.02;;;18.50;99.90;;;;;;5064466;28;20037;-71
2023/05/28 09:03:46;;;;;;;23.40;7.25;;;18.70;99.90;;;;;;5065551;28;20020;-69
2023/05/28 09:06:15;;;;;;;27.63;7.75;;;18.80;99.90;;;;;;5064933;28;20056;-69
2023/05/28 09:08:44;;;;;;;23.10;7.95;;;19.00;99.90;;;;;;5065409;28;20025;-71
2023/05/28 09:11:12;;;;;;;22.20;7.68;;;19.20;99.90;;;;;;5065141;28;20029;-69
2023/05/28 09:13:45;;;;;;;21.92;7.95;;;19.20;99.90;;;;;;5062645;28;20035;-71
2023/05/28 09:16:12;;;;;;;24.92;7.28;;;19.30;99.90;;;;;;5065264;28;20108;-72
2023/05/28 09:18:37;;;;;;;23.42;7.55;;;19.30;99.90;;;;;;5064998;28;20461;-70
2023/05/28 09:21:12;;;;;;;19.83;7.32;;;19.40;99.90;;;;;;5064580;28;20055;-69
2023/05/28 09:23:39;;;;;;;20.98;6.95;;;19.50;99.90;;;;;;5064953;28;20036;-69
2023/05/28 09:26:09;;;;;;;21.13;7.32;;;19.50;99.90;;;;;;5064104;28;20028;-68
2023/05/28 09:28:35;;;;;;;23.25;7.03;;;19.50;99.90;;;;;;5063381;28;20033;-69
2023/05/28 09:31:05;;;;;;;24.55;7.60;;;19.50;99.90;;;;;;5064908;28;20028;-70
2023/05/28 09:33:33;;;;;;;16.17;6.20;;;19.50;99.90;;;;;;5064206;28;20025;-71
2023/05/28 09:36:00;;;;;;;25.63;6.68;;;19.60;99.90;;;;;;5062700;28;20032;-70
2023/05/28 09:38:26;;;;;;;17.40;6.53;;;19.70;99.90;;;;;;5063039;28;20028;-69
2023/05/28 09:40:55;;;;;;;17.27;6.82;;;19.80;99.90;;;;;;5063868;28;20100;-70
2023/05/28 09:43:30;;;;;;;17.50;6.65;;;20.00;99.90;;;;;;5064176;28;20074;-70
2023/05/28 09:46:08;;;;;;;20.20;6.63;;;20.00;99.90;;;;;;5064036;28;20016;-70
2023/05/28 09:48:34;;;;;;;23.08;7.10;;;20.10;99.90;;;;;;5063409;28;20025;-69
2023/05/28 09:51:03;;;;;;;21.33;6.53;;;20.20;99.90;;;;;;5062019;28;20036;-69
2023/05/28 09:53:33;;;;;;;19.67;7.07;;;20.30;99.90;;;;;;5061545;28;20064;-69
2023/05/28 09:56:00;;;;;;;18.27;6.57;;;20.30;99.90;;;;;;5063747;28;20460;-69
2023/05/28 09:58:34;;;;;;;20.70;7.30;;;20.30;99.90;;;;;;5064132;28;20091;-70
2023/05/28 10:01:03;;;;;;;16.98;6.47;;;20.40;99.90;;;;;;5063980;28;20093;-71
2023/05/28 10:03:38;;;;;;;19.25;7.25;;;20.40;99.90;;;;;;5063288;28;20085;-68
2023/05/28 10:06:10;;;;;;;19.52;7.25;;;20.50;99.90;;;;;;5062726;28;20029;-68
2023/05/28 10:08:37;;;;;;;21.33;7.50;;;20.70;99.90;;;;;;5063603;28;20021;-69
2023/05/28 10:11:05;;;;;;;23.08;6.78;;;20.70;99.90;;;;;;5063461;28;20045;-69
2023/05/28 10:13:31;;;;;;;22.00;6.78;;;20.70;99.90;;;;;;5063477;28;20019;-68
2023/05/28 10:15:57;;;;;;;20.88;7.05;;;20.70;99.90;;;;;;5059487;28;20043;-68
2023/05/28 10:18:24;;;;;;;15.82;6.78;;;20.80;99.90;;;;;;5061627;28;20040;-69
2023/05/28 10:20:51;;;;;;;23.50;7.03;;;20.80;99.90;;;;;;5060322;28;20073;-68
2023/05/28 10:23:17;;;;;;;19.05;7.28;;;20.80;99.90;;;;;;5063063;28;20040;-68
2023/05/28 10:25:42;;;;;;;20.27;6.85;;;20.80;99.90;;;;;;5063188;28;20027;-69
2023/05/28 10:28:13;;;;;;;17.08;7.07;;;20.90;99.90;;;;;;5063766;28;20100;-69
2023/05/28 10:30:39;;;;;;;18.10;6.82;;;20.90;99.90;;;;;;5062012;28;21343;-69
2023/05/28 10:33:11;;;;;;;22.27;7.03;;;20.90;99.90;;;;;;5061820;28;20025;-69
2023/05/28 10:35:59;;;;;;;16.33;7.18;;;20.90;99.90;;;;;;5063373;28;20025;-69
2023/05/28 10:38:26;;;;;;;16.80;6.60;;;20.90;99.90;;;;;;5062792;28;20037;-70
2023/05/28 10:41:00;;;;;;;18.80;6.55;;;21.00;99.90;;;;;;5062419;28;20417;-69
2023/05/28 10:43:38;;;;;;;18.27;6.57;;;21.10;99.90;;;;;;5063176;28;20048;-69
2023/05/28 10:46:08;;;;;;;15.60;6.53;;;21.20;99.90;;;;;;5063392;28;20028;-68
2023/05/28 10:48:41;;;;;;;23.23;6.75;;;21.20;99.90;;;;;;5061272;28;20032;-69
2023/05/28 10:51:07;;;;;;;17.08;6.38;;;21.20;99.90;;;;;;5062468;28;20072;-69
2023/05/28 10:53:33;;;;;;;16.55;6.25;;;21.30;99.90;;;;;;5061951;28;20021;-69
2023/05/28 10:56:01;;;;;;;13.98;6.30;;;21.40;99.90;;;;;;5063097;28;20048;-68
2023/05/28 10:58:27;;;;;;;18.35;6.25;;;21.50;99.90;;;;;;5061476;28;20020;-69
2023/05/28 11:01:22;;;;;;;18.77;6.28;;;21.60;99.90;;;;;;5062638;28;20044;-68
2023/05/28 11:03:53;;;;;;;14.13;5.72;;;21.60;99.90;;;;;;5061997;28;20033;-70
2023/05/28 11:06:19;;;;;;;17.90;6.03;;;21.60;99.90;;;;;;5060854;28;20681;-67
2023/05/28 11:08:47;;;;;;;16.25;6.30;;;21.50;99.90;;;;;;5061859;28;20021;-69
2023/05/28 11:11:17;;;;;;;15.82;5.55;;;21.60;99.90;;;;;;5062765;28;20085;-68
2023/05/28 11:13:43;;;;;;;16.58;6.03;;;21.60;99.90;;;;;;5061920;28;20020;-69
2023/05/28 11:16:11;;;;;;;18.67;6.22;;;21.70;99.90;;;;;;5062673;28;20017;-71
2023/05/28 11:18:37;;;;;;;17.27;6.18;;;21.80;99.90;;;;;;5060641;28;20025;-69
2023/05/28 11:21:08;;;;;;;13.40;5.35;;;21.80;99.90;;;;;;5062259;28;21006;-68
2023/05/28 11:23:36;;;;;;;12.98;5.20;;;22.00;99.90;;;;;;5062637;28;20043;-69
2023/05/28 11:26:03;;;;;;;11.57;5.15;;;22.10;99.90;;;;;;5061019;28;20020;-70
2023/05/28 11:28:29;;;;;;;14.55;5.60;;;22.20;99.90;;;;;;5062203;28;20025;-68
2023/05/28 11:30:59;;;;;;;11.07;5.18;;;22.30;99.90;;;;;;5062188;28;20021;-69
2023/05/28 11:33:28;;;;;;;12.45;4.72;;;22.40;99.90;;;;;;5060219;28;20028;-68
2023/05/28 11:36:01;;;;;;;12.90;5.15;;;22.40;99.90;;;;;;5060778;28;20037;-70
2023/05/28 11:38:26;;;;;;;16.05;6.05;;;22.40;99.90;;;;;;5062245;28;20020;-68
2023/05/28 11:41:02;;;;;;;11.25;5.05;;;22.40;99.90;;;;;;5060064;28;20037;-68
2023/05/28 11:43:27;;;;;;;11.30;4.65;;;22.60;99.90;;;;;;5061046;28;20556;-69
2023/05/28 11:46:01;;;;;;;10.43;4.88;;;22.60;99.90;;;;;;5061997;28;20021;-69
2023/05/28 11:48:27;;;;;;;9.35;4.65;;;22.60;99.90;;;;;;5061180;28;20501;-70
2023/05/28 11:50:58;;;;;;;10.50;4.95;;;22.60;99.90;;;;;;5061877;28;20045;-68
2023/05/28 11:53:23;;;;;;;9.70;4.60;;;22.70;99.90;;;;;;5061227;28;20033;-69
2023/05/28 11:55:49;;;;;;;12.57;4.55;;;22.80;99.90;;;;;;5061841;28;20074;-68
2023/05/28 11:58:15;;;;;;;10.80;4.70;;;22.90;99.90;;;;;;5061341;28;20063;-72
2023/05/28 12:00:40;;;;;;;10.73;4.32;;;23.00;99.90;;;;;;5061869;28;20055;-68
2023/05/28 12:03:10;;;;;;;15.88;4.70;;;23.00;99.90;;;;;;5061666;28;20040;-67
2023/05/28 12:05:40;;;;;;;11.95;4.35;;;23.20;99.90;;;;;;5060721;28;20025;-69
2023/05/28 12:08:06;;;;;;;10.73;4.57;;;23.20;99.90;;;;;;5056150;28;20087;-68
2023/05/28 12:10:31;;;;;;;10.02;4.82;;;23.30;99.90;;;;;;5061738;28;20553;-67
2023/05/28 12:12:57;;;;;;;9.68;4.22;;;23.40;99.90;;;;;;5060786;28;20037;-67
2023/05/28 12:15:24;;;;;;;10.00;4.80;;;23.50;99.90;;;;;;5061031;28;20048;-70
2023/05/28 12:17:57;;;;;;;13.15;4.93;;;23.50;99.90;;;;;;5061752;28;20021;-69
2023/05/28 12:20:22;;;;;;;9.38;4.60;;;23.60;99.90;;;;;;5060256;28;20048;-69
2023/05/28 12:23:08;;;;;;;11.15;4.80;;;23.70;99.90;;;;;;5061345;28;20017;-68
2023/05/28 12:25:43;;;;;;;13.95;5.03;;;23.80;99.90;;;;;;5060324;28;20032;-68
2023/05/28 12:28:19;;;;;;;14.15;4.93;;;23.90;99.90;;;;;;5061098;28;20111;-69
2023/05/28 12:30:49;;;;;;;16.83;4.85;;;23.90;99.90;;;;;;5061165;28;20112;-69